createdAt,value
2023-01-10T00:00:35.166Z,23.10
2023-01-10T00:03:23.952Z,25.60
2023-01-10T00:05:52.748Z,23.70
2023-01-10T00:08:21.947Z,21.70
2023-01-10T00:10:50.850Z,25.00
2023-01-10T00:13:25.800Z,27.40
2023-01-10T00:15:56.554Z,25.50
2023-01-10T00:18:25.932Z,26.20
2023-01-10T00:20:54.508Z,22.30
2023-01-10T00:23:23.635Z,24.50
2023-01-10T00:25:52.753Z,23.40
2023-01-10T00:28:21.360Z,21.40
2023-01-10T00:31:07.251Z,21.40
2023-01-10T00:33:37.828Z,20.30
2023-01-10T00:36:08.115Z,19.80
2023-01-10T00:38:37.169Z,21.20
2023-01-10T00:41:26.069Z,21.00
2023-01-10T00:43:58.366Z,21.10
2023-01-10T00:46:27.868Z,21.10
2023-01-10T00:48:57.948Z,21.50
2023-01-10T00:51:26.488Z,20.60
2023-01-10T00:53:55.077Z,20.90
2023-01-10T00:56:24.028Z,23.10
2023-01-10T00:58:52.708Z,21.50
2023-01-10T01:01:22.295Z,21.80
2023-01-10T01:04:16.919Z,19.60
2023-01-10T01:06:48.090Z,18.70
2023-01-10T01:09:17.178Z,20.60
2023-01-10T01:11:45.669Z,21.40
2023-01-10T01:14:14.348Z,21.30
2023-01-10T01:16:43.487Z,21.00
2023-01-10T01:19:13.050Z,20.40
2023-01-10T01:21:42.133Z,19.00
2023-01-10T01:24:11.772Z,19.40
2023-01-10T01:26:42.350Z,19.70
2023-01-10T01:29:11.589Z,19.20
2023-01-10T01:31:40.708Z,19.90
2023-01-10T01:34:09.348Z,19.20
2023-01-10T01:36:38.428Z,18.60
2023-01-10T01:39:07.429Z,16.80
2023-01-10T01:41:55.810Z,17.60
2023-01-10T01:44:30.149Z,20.40
2023-01-10T01:47:15.227Z,22.10
2023-01-10T01:49:46.118Z,20.60
2023-01-10T01:52:23.398Z,20.60
2023-01-10T01:54:55.576Z,20.20
2023-01-10T01:57:27.786Z,20.40
2023-01-10T01:59:57.213Z,19.80
2023-01-10T02:02:38.531Z,19.20
2023-01-10T02:05:11.211Z,20.90
2023-01-10T02:07:45.296Z,19.30
2023-01-10T02:10:23.470Z,17.00
2023-01-10T02:12:55.788Z,17.50
2023-01-10T02:15:24.389Z,17.60
2023-01-10T02:17:53.868Z,18.20
2023-01-10T02:20:23.694Z,22.10
2023-01-10T02:23:14.369Z,18.10
2023-01-10T02:26:12.730Z,19.80
2023-01-10T02:28:44.890Z,18.80
2023-01-10T02:31:47.529Z,18.90
2023-01-10T02:34:40.333Z,18.10
2023-01-10T02:37:44.087Z,17.70
2023-01-10T02:40:45.427Z,17.90
2023-01-10T02:43:19.034Z,18.80
2023-01-10T02:45:55.426Z,17.60
2023-01-10T02:48:25.449Z,17.90
2023-01-10T02:51:35.949Z,17.30
2023-01-10T02:54:19.929Z,17.80
2023-01-10T02:57:18.043Z,17.30
2023-01-10T02:59:58.692Z,16.80
2023-01-10T03:02:40.568Z,15.80
2023-01-10T03:05:47.997Z,15.60
2023-01-10T03:08:41.938Z,15.70
2023-01-10T03:11:12.502Z,14.80
2023-01-10T03:13:52.447Z,14.70
2023-01-10T03:16:27.562Z,15.20
2023-01-10T03:19:01.123Z,16.20
2023-01-10T03:21:32.004Z,13.50
2023-01-10T03:24:06.559Z,14.80
2023-01-10T03:27:13.560Z,14.00
2023-01-10T03:30:13.090Z,16.10
2023-01-10T03:32:42.565Z,15.60
2023-01-10T03:35:13.364Z,15.80
2023-01-10T03:37:50.540Z,15.10
2023-01-10T03:40:32.955Z,14.60
2023-01-10T03:43:35.386Z,15.30
2023-01-10T03:46:13.019Z,13.70
2023-01-10T03:48:44.256Z,15.60
2023-01-10T03:51:14.218Z,16.70
2023-01-10T03:53:42.678Z,15.80
2023-01-10T03:56:15.289Z,14.10
2023-01-10T03:58:44.443Z,14.70
2023-01-10T04:01:12.898Z,14.60
2023-01-10T04:03:57.519Z,14.80
2023-01-10T04:06:26.221Z,15.30
2023-01-10T04:08:54.657Z,15.10
2023-01-10T04:11:23.522Z,15.10
2023-01-10T04:13:51.871Z,14.40
2023-01-10T04:16:20.776Z,13.70
2023-01-10T04:18:49.115Z,14.30
2023-01-10T04:21:17.759Z,13.90
2023-01-10T04:23:46.725Z,14.50
2023-01-10T04:26:16.024Z,15.40
2023-01-10T04:28:44.628Z,14.50
2023-01-10T04:31:13.122Z,15.30
2023-01-10T04:33:41.805Z,13.40
2023-01-10T04:36:10.275Z,14.20
2023-01-10T04:38:38.673Z,13.80
2023-01-10T04:41:07.333Z,14.80
2023-01-10T04:43:36.423Z,15.10
2023-01-10T04:46:05.281Z,14.90
2023-01-10T04:48:34.505Z,13.60
2023-01-10T04:51:04.183Z,14.70
2023-01-10T04:53:32.604Z,13.50
2023-01-10T04:56:09.900Z,13.10
2023-01-10T04:58:39.536Z,12.30
2023-01-10T05:01:13.903Z,13.00
2023-01-10T05:03:42.910Z,12.20
2023-01-10T05:06:11.932Z,12.90
2023-01-10T05:08:40.694Z,13.30
2023-01-10T05:11:09.256Z,13.20
2023-01-10T05:13:38.215Z,12.80
2023-01-10T05:16:07.630Z,12.80
2023-01-10T05:18:36.173Z,14.20
2023-01-10T05:21:12.787Z,13.50
2023-01-10T05:23:41.698Z,14.10
2023-01-10T05:26:14.459Z,13.00
2023-01-10T05:28:43.962Z,12.50
2023-01-10T05:31:17.096Z,11.90
2023-01-10T05:36:17.860Z,12.60
2023-01-10T05:38:46.670Z,12.20
2023-01-10T05:41:15.143Z,13.10
2023-01-10T05:43:43.831Z,12.10
2023-01-10T05:46:13.031Z,11.70
2023-01-10T05:48:41.900Z,12.40
2023-01-10T05:51:11.242Z,13.30
2023-01-10T05:53:39.757Z,12.30
2023-01-10T05:56:10.092Z,11.60
2023-01-10T05:58:39.036Z,12.50
2023-01-10T06:01:08.142Z,11.60
2023-01-10T06:03:37.915Z,12.60
2023-01-10T06:06:07.151Z,11.50
2023-01-10T06:08:37.308Z,10.50
2023-01-10T06:11:06.932Z,12.30
2023-01-10T06:13:35.454Z,11.00
2023-01-10T06:16:04.064Z,12.90
2023-01-10T06:18:32.483Z,12.70
2023-01-10T06:21:01.303Z,11.90
2023-01-10T06:23:30.924Z,13.30
2023-01-10T06:25:59.413Z,12.40
2023-01-10T06:28:27.946Z,12.10
2023-01-10T06:30:57.068Z,13.40
2023-01-10T06:33:26.937Z,14.90
2023-01-10T06:35:55.896Z,13.60
2023-01-10T06:38:24.418Z,13.00
2023-01-10T06:40:53.305Z,13.00
2023-01-10T06:43:21.765Z,12.20
2023-01-10T06:45:54.001Z,13.20
2023-01-10T06:48:22.937Z,12.90
2023-01-10T06:50:51.449Z,11.70
2023-01-10T06:53:19.905Z,13.50
2023-01-10T06:55:48.839Z,12.90
2023-01-10T06:58:18.805Z,12.30
2023-01-10T07:00:47.304Z,13.40
2023-01-10T07:03:47.013Z,13.50
2023-01-10T07:06:15.789Z,12.60
2023-01-10T07:08:46.462Z,13.50
2023-01-10T07:11:16.163Z,13.60
2023-01-10T07:13:45.281Z,14.00
2023-01-10T07:16:16.091Z,13.20
2023-01-10T07:18:45.527Z,13.00
2023-01-10T07:21:14.523Z,13.20
2023-01-10T07:23:43.703Z,12.40
2023-01-10T07:26:12.614Z,12.70
2023-01-10T07:28:41.498Z,12.20
2023-01-10T07:31:12.072Z,12.60
2023-01-10T07:33:40.563Z,14.80
2023-01-10T07:36:09.055Z,12.10
2023-01-10T07:38:40.514Z,12.80
2023-01-10T07:41:09.503Z,13.30
2023-01-10T07:43:37.964Z,12.00
2023-01-10T07:46:12.573Z,12.20
2023-01-10T07:48:42.333Z,12.40
2023-01-10T07:51:11.376Z,11.40
2023-01-10T07:53:40.022Z,13.00
2023-01-10T07:56:08.534Z,13.60
2023-01-10T07:58:36.963Z,13.00
2023-01-10T08:01:07.967Z,14.40
2023-01-10T08:03:41.742Z,14.70
2023-01-10T08:08:40.496Z,12.70
2023-01-10T08:11:09.133Z,12.20
2023-01-10T08:13:38.162Z,12.20
2023-01-10T08:16:08.801Z,10.90
2023-01-10T08:18:39.410Z,11.40
2023-01-10T08:21:07.839Z,11.70
2023-01-10T08:23:36.313Z,10.60
2023-01-10T08:26:06.160Z,10.80
2023-01-10T08:28:34.503Z,12.00
2023-01-10T08:31:10.003Z,11.00
2023-01-10T08:33:40.433Z,12.10
2023-01-10T08:36:20.635Z,12.00
2023-01-10T08:38:51.494Z,13.00
2023-01-10T08:41:19.852Z,12.00
2023-01-10T08:43:52.145Z,12.60
2023-01-10T08:46:20.767Z,11.80
2023-01-10T08:48:50.768Z,11.10
2023-01-10T08:51:19.822Z,11.90
2023-01-10T08:53:48.959Z,11.80
2023-01-10T08:56:39.015Z,11.80
2023-01-10T08:59:08.681Z,11.00
2023-01-10T09:01:37.664Z,11.90
2023-01-10T09:04:33.094Z,11.10
2023-01-10T09:07:02.543Z,12.50
2023-01-10T09:09:32.185Z,12.90
2023-01-10T09:12:01.286Z,11.10
2023-01-10T09:14:29.865Z,12.20
2023-01-10T09:16:59.743Z,11.30
2023-01-10T09:19:28.925Z,12.20
2023-01-10T09:21:57.756Z,11.80
2023-01-10T09:24:26.703Z,13.10
2023-01-10T09:26:55.586Z,13.30
2023-01-10T09:29:24.570Z,13.40
2023-01-10T09:31:52.959Z,13.50
2023-01-10T09:34:22.709Z,13.40
2023-01-10T09:36:51.152Z,13.40
2023-01-10T09:39:21.836Z,13.20
2023-01-10T09:42:40.137Z,12.80
2023-01-10T09:45:26.577Z,11.60
2023-01-10T09:48:42.068Z,12.10
2023-01-10T09:51:14.504Z,11.60
2023-01-10T09:53:45.693Z,10.90
2023-01-10T09:56:17.884Z,12.30
2023-01-10T09:58:55.845Z,10.70
2023-01-10T10:01:37.672Z,11.80
2023-01-10T10:09:33.705Z,11.60
2023-01-10T10:12:31.222Z,11.40
2023-01-10T10:15:27.053Z,11.10
2023-01-10T10:43:28.022Z,9.10
2023-01-10T10:46:02.382Z,9.10
2023-01-10T10:48:57.873Z,8.00
2023-01-10T10:51:44.245Z,7.50
2023-01-10T10:54:14.270Z,8.00
2023-01-10T10:56:44.659Z,8.70
2023-01-10T10:59:18.948Z,8.40
2023-01-10T11:01:50.086Z,8.60
2023-01-10T11:04:43.424Z,9.00
2023-01-10T11:07:17.783Z,8.60
2023-01-10T11:10:06.808Z,8.70
2023-01-10T11:12:39.067Z,9.50
2023-01-10T11:15:08.582Z,9.30
2023-01-10T11:17:41.444Z,9.60
2023-01-10T11:20:18.012Z,8.90
2023-01-10T11:22:49.739Z,9.50
2023-01-10T11:25:21.540Z,9.50
2023-01-10T11:27:57.665Z,10.00
2023-01-10T11:30:33.380Z,9.40
2023-01-10T11:33:05.011Z,10.10
2023-01-10T11:35:39.187Z,9.40
2023-01-10T11:38:20.414Z,9.60
2023-01-10T11:41:01.054Z,10.50
2023-01-10T11:43:39.928Z,10.00
2023-01-10T11:46:21.951Z,10.70
2023-01-10T11:49:05.564Z,10.60
2023-01-10T11:51:44.881Z,11.10
2023-01-10T11:54:25.770Z,11.70
2023-01-10T11:57:08.894Z,10.10
2023-01-10T11:59:39.523Z,11.40
2023-01-10T12:02:28.910Z,11.00
2023-01-10T12:05:00.579Z,11.30
2023-01-10T12:07:29.442Z,11.30
2023-01-10T12:10:01.786Z,11.70
2023-01-10T12:12:36.803Z,11.20
2023-01-10T12:15:29.941Z,10.90
2023-01-10T12:18:05.922Z,11.20
2023-01-10T12:21:00.579Z,11.70
2023-01-10T12:23:31.782Z,11.90
2023-01-10T12:26:11.457Z,11.20
2023-01-10T12:28:58.845Z,11.30
2023-01-10T12:31:32.050Z,11.20
2023-01-10T12:34:10.409Z,11.50
2023-01-10T12:37:17.281Z,11.70
2023-01-10T12:39:52.275Z,12.40
2023-01-10T12:42:56.058Z,11.80
2023-01-10T12:45:30.810Z,11.90
2023-01-10T12:48:08.468Z,12.20
2023-01-10T12:50:42.303Z,12.00
2023-01-10T12:53:14.331Z,11.90
2023-01-10T12:55:45.829Z,12.40
2023-01-10T12:58:23.855Z,12.80
2023-01-10T13:00:55.685Z,11.80
2023-01-10T13:03:29.041Z,13.00
2023-01-10T13:05:58.651Z,12.60
2023-01-10T13:08:34.043Z,12.70
2023-01-10T13:11:04.924Z,11.90
2023-01-10T13:13:56.230Z,11.70
2023-01-10T13:16:43.573Z,12.20
2023-01-10T13:19:11.985Z,10.90
2023-01-10T13:21:43.405Z,11.80
2023-01-10T13:24:28.563Z,11.10
2023-01-10T13:27:03.767Z,12.20
2023-01-10T13:29:43.841Z,12.00
2023-01-10T13:32:25.376Z,10.20
2023-01-10T13:34:55.910Z,11.90
2023-01-10T13:37:49.840Z,11.20
2023-01-10T13:40:31.366Z,10.90
2023-01-10T13:43:34.808Z,10.70
2023-01-10T13:46:19.271Z,10.70
2023-01-10T13:48:50.731Z,9.90
2023-01-10T13:51:22.368Z,10.00
2023-01-10T13:53:55.200Z,9.90
2023-01-10T13:56:36.541Z,10.10
2023-01-10T13:59:44.670Z,9.50
2023-01-10T14:02:29.739Z,10.00
2023-01-10T14:05:18.104Z,9.80
2023-01-10T14:07:50.664Z,9.10
2023-01-10T14:10:30.143Z,9.90
2023-01-10T14:13:09.550Z,9.90
2023-01-10T14:15:40.871Z,8.70
2023-01-10T14:18:34.889Z,8.40
2023-01-10T14:21:07.052Z,8.40
2023-01-10T14:23:39.077Z,8.00
2023-01-10T14:26:18.282Z,8.40
2023-01-10T14:28:47.301Z,8.00
2023-01-10T14:31:24.412Z,6.30
2023-01-10T14:33:54.656Z,6.20
2023-01-10T14:36:31.932Z,6.00
2023-01-10T14:39:05.063Z,6.40
2023-01-10T14:41:46.522Z,6.90
2023-01-10T14:44:44.581Z,6.70
2023-01-10T14:47:37.911Z,6.60
2023-01-10T14:50:07.251Z,6.90
2023-01-10T14:52:35.653Z,6.00
2023-01-10T14:55:19.352Z,6.40
2023-01-10T14:58:00.100Z,6.50
2023-01-10T15:00:37.031Z,6.70
2023-01-10T15:03:10.381Z,6.20
2023-01-10T15:05:50.376Z,10.00
2023-01-10T15:08:28.291Z,7.60
2023-01-10T15:11:07.027Z,8.20
2023-01-10T15:13:54.491Z,7.90
2023-01-10T15:16:25.484Z,8.20
2023-01-10T15:18:56.963Z,6.80
2023-01-10T15:21:26.170Z,6.90
2023-01-10T15:23:55.621Z,6.60
2023-01-10T15:26:24.568Z,6.10
2023-01-10T15:29:13.571Z,7.40
2023-01-10T15:31:43.011Z,8.00
2023-01-10T15:34:19.400Z,7.30
2023-01-10T15:36:58.051Z,7.80
2023-01-10T15:39:33.090Z,7.50
2023-01-10T15:42:08.931Z,8.80
2023-01-10T15:44:46.306Z,9.00
2023-01-10T15:47:44.879Z,10.60
2023-01-10T15:50:28.786Z,10.70
2023-01-10T15:53:02.029Z,10.40
2023-01-10T15:58:36.868Z,11.20
2023-01-10T16:01:05.704Z,12.60
2023-01-10T16:03:43.983Z,13.40
2023-01-10T16:06:22.570Z,15.00
2023-01-10T16:08:54.744Z,12.60
2023-01-10T16:11:46.721Z,12.90
2023-01-10T16:14:15.240Z,16.70
2023-01-10T16:16:43.701Z,18.80
2023-01-10T16:19:14.566Z,29.70
2023-01-10T16:22:00.781Z,33.60
2023-01-10T16:24:31.809Z,21.60
2023-01-10T16:27:06.025Z,22.30
2023-01-10T16:29:34.770Z,20.30
2023-01-10T16:32:03.330Z,18.60
2023-01-10T16:34:34.641Z,19.10
2023-01-10T16:37:04.409Z,20.70
2023-01-10T16:39:33.447Z,18.40
2023-01-10T16:42:21.014Z,17.30
2023-01-10T16:44:49.717Z,17.70
2023-01-10T16:47:18.180Z,20.30
2023-01-10T16:49:47.284Z,18.80
2023-01-10T16:52:16.623Z,20.50
2023-01-10T16:54:45.345Z,21.40
2023-01-10T16:57:15.287Z,21.40
2023-01-10T16:59:43.934Z,16.40
2023-01-10T17:02:18.391Z,16.30
2023-01-10T17:04:47.258Z,17.70
2023-01-10T17:07:16.010Z,16.00
2023-01-10T17:09:44.482Z,15.60
2023-01-10T17:12:19.745Z,17.30
2023-01-10T17:14:48.608Z,16.40
2023-01-10T17:17:17.282Z,15.70
2023-01-10T17:19:47.989Z,16.60
2023-01-10T17:22:16.669Z,15.40
2023-01-10T17:24:45.136Z,18.00
2023-01-10T17:27:14.471Z,16.20
2023-01-10T17:29:43.336Z,18.00
2023-01-10T17:32:13.158Z,16.00
2023-01-10T17:34:42.360Z,18.00
2023-01-10T17:37:11.364Z,25.30
2023-01-10T17:39:39.965Z,20.70
2023-01-10T17:42:09.092Z,16.40
2023-01-10T17:44:37.732Z,19.90
2023-01-10T17:47:06.325Z,22.10
2023-01-10T17:49:36.694Z,24.20
2023-01-10T17:52:05.242Z,21.70
2023-01-10T17:54:35.572Z,18.00
2023-01-10T17:59:58.393Z,20.20
2023-01-10T18:02:27.096Z,18.80
2023-01-10T18:04:56.372Z,20.00
2023-01-10T18:07:24.817Z,17.90
2023-01-10T18:09:54.452Z,18.60
2023-01-10T18:12:23.531Z,17.50
2023-01-10T18:14:52.355Z,19.10
2023-01-10T18:17:20.859Z,27.10
2023-01-10T18:19:50.964Z,26.40
2023-01-10T18:22:38.975Z,27.50
2023-01-10T18:25:08.288Z,26.10
2023-01-10T18:27:36.890Z,28.90
2023-01-10T18:30:06.622Z,20.20
2023-01-10T18:32:35.509Z,20.00
2023-01-10T18:35:04.854Z,17.40
2023-01-10T18:37:34.927Z,18.30
2023-01-10T18:41:02.712Z,16.40
2023-01-10T18:43:31.789Z,17.20
2023-01-10T18:46:09.970Z,17.50
2023-01-10T18:48:39.035Z,17.40
2023-01-10T18:51:10.499Z,15.80
2023-01-10T18:53:44.378Z,16.00
2023-01-10T18:56:13.231Z,15.70
2023-01-10T18:59:08.493Z,15.50
2023-01-10T19:01:37.139Z,32.90
2023-01-10T19:04:06.362Z,21.90
2023-01-10T19:06:34.972Z,18.80
2023-01-10T19:09:04.532Z,19.10
2023-01-10T19:11:33.408Z,18.90
2023-01-10T19:14:03.632Z,20.70
2023-01-10T19:16:34.434Z,20.40
2023-01-10T19:19:11.837Z,21.20
2023-01-10T19:21:41.747Z,19.70
2023-01-10T19:24:28.971Z,20.30
2023-01-10T19:26:58.619Z,22.50
2023-01-10T19:29:27.890Z,25.80
2023-01-10T19:31:58.794Z,26.80
2023-01-10T19:34:27.749Z,23.10
2023-01-10T19:36:56.524Z,23.40
2023-01-10T19:39:26.567Z,22.70
2023-01-10T19:41:55.630Z,24.90
2023-01-10T19:44:25.149Z,24.20
2023-01-10T19:46:54.777Z,24.30
2023-01-10T19:49:25.345Z,23.10
2023-01-10T19:51:56.342Z,22.20
2023-01-10T19:54:24.967Z,21.60
2023-01-10T19:56:57.911Z,21.00
2023-01-10T19:59:38.128Z,20.90
2023-01-10T20:02:06.806Z,21.30
2023-01-10T20:04:36.929Z,21.00
2023-01-10T20:07:05.520Z,20.80
2023-01-10T20:09:34.863Z,20.00
2023-01-10T20:12:03.948Z,18.00
2023-01-10T20:14:32.796Z,19.10
2023-01-10T20:17:08.761Z,17.00
2023-01-10T20:19:37.517Z,20.20
2023-01-10T20:22:06.848Z,18.20
2023-01-10T20:24:39.519Z,18.00
2023-01-10T20:27:09.936Z,18.50
2023-01-10T20:29:42.914Z,18.90
2023-01-10T20:32:15.910Z,18.70
2023-01-10T20:34:46.919Z,19.30
2023-01-10T20:37:15.629Z,19.00
2023-01-10T20:39:46.903Z,18.20
2023-01-10T20:42:16.436Z,18.90
2023-01-10T20:44:45.625Z,17.60
2023-01-10T20:47:14.748Z,20.00
2023-01-10T20:49:44.171Z,25.30
2023-01-10T20:52:15.486Z,21.50
2023-01-10T20:54:43.979Z,19.70
2023-01-10T20:57:12.772Z,18.20
2023-01-10T20:59:43.277Z,19.20
2023-01-10T21:02:12.604Z,19.30
2023-01-10T21:04:42.287Z,21.30
2023-01-10T21:07:11.568Z,21.10
2023-01-10T21:09:41.177Z,20.30
2023-01-10T21:12:22.820Z,21.20
2023-01-10T21:14:54.619Z,20.50
2023-01-10T21:17:23.778Z,21.50
2023-01-10T21:19:52.947Z,19.40
2023-01-10T21:22:22.537Z,20.90
2023-01-10T21:24:52.625Z,20.60
2023-01-10T21:27:21.567Z,22.90
2023-01-10T21:29:50.451Z,22.70
2023-01-10T21:32:19.158Z,24.80
2023-01-10T21:34:48.282Z,25.10
2023-01-10T21:37:17.209Z,25.30
2023-01-10T21:39:46.288Z,25.20
2023-01-10T21:42:33.487Z,26.80
2023-01-10T21:45:02.594Z,23.10
2023-01-10T21:47:31.227Z,22.60
2023-01-10T21:50:00.455Z,24.70
2023-01-10T21:52:28.863Z,23.50
2023-01-10T21:54:58.066Z,23.00
2023-01-10T21:57:27.575Z,27.30
2023-01-10T22:00:19.670Z,22.50
2023-01-10T22:02:48.639Z,22.80
2023-01-10T22:05:17.674Z,22.80
2023-01-10T22:07:46.770Z,21.90
2023-01-10T22:10:15.420Z,24.20
2023-01-10T22:12:44.314Z,21.60
2023-01-10T22:15:12.924Z,24.40
2023-01-10T22:17:41.829Z,22.30
2023-01-10T22:20:11.985Z,23.80
2023-01-10T22:22:40.434Z,22.80
2023-01-10T22:25:09.584Z,26.20
2023-01-10T22:27:37.975Z,21.30
2023-01-10T22:30:07.411Z,21.60
2023-01-10T22:32:36.858Z,20.10
2023-01-10T22:35:05.537Z,19.60
2023-01-10T22:37:33.928Z,28.40
2023-01-10T22:40:02.457Z,28.00
2023-01-10T22:42:31.372Z,20.90
2023-01-10T22:44:59.890Z,18.50
2023-01-10T22:47:28.857Z,18.10
2023-01-10T22:49:57.353Z,18.40
2023-01-10T22:52:26.255Z,17.20
2023-01-10T22:54:55.492Z,18.00
2023-01-10T22:57:23.949Z,18.90
2023-01-10T22:59:52.774Z,18.00
2023-01-10T23:02:21.838Z,17.60
2023-01-10T23:04:50.899Z,27.80
2023-01-10T23:07:19.289Z,23.40
2023-01-10T23:09:47.543Z,24.10
2023-01-10T23:12:17.279Z,20.90
2023-01-10T23:14:52.885Z,20.10
2023-01-10T23:17:21.252Z,20.60
2023-01-10T23:19:49.543Z,20.00
2023-01-10T23:22:17.999Z,19.30
2023-01-10T23:24:46.232Z,19.60
2023-01-10T23:27:14.503Z,19.70
2023-01-10T23:29:42.831Z,18.40
2023-01-10T23:32:11.637Z,20.30
2023-01-10T23:34:40.567Z,18.20
2023-01-10T23:37:08.880Z,18.30
2023-01-10T23:39:38.001Z,19.20
2023-01-10T23:42:06.937Z,17.10
2023-01-10T23:44:35.858Z,17.70
2023-01-10T23:47:04.582Z,18.60
2023-01-10T23:49:32.846Z,17.50
2023-01-10T23:52:01.973Z,16.30
2023-01-10T23:54:30.338Z,17.00
2023-01-10T23:57:00.133Z,18.70
2023-01-10T23:59:28.694Z,16.70
